createdAt,value
2022-10-05T00:05:01.326Z,8.58
2022-10-05T00:10:14.308Z,8.54
2022-10-05T00:15:19.177Z,8.52
2022-10-05T00:20:26.855Z,8.50
2022-10-05T00:25:29.078Z,8.51
2022-10-05T00:30:34.208Z,8.53
2022-10-05T00:35:36.617Z,8.60
2022-10-05T00:40:58.775Z,8.65
2022-10-05T00:46:09.623Z,8.70
2022-10-05T00:51:26.875Z,8.75
2022-10-05T00:56:50.145Z,8.79
2022-10-05T01:02:00.556Z,8.79
2022-10-05T01:07:22.395Z,8.84
2022-10-05T01:12:36.320Z,8.87
2022-10-05T01:17:49.659Z,8.91
2022-10-05T01:23:09.285Z,8.93
2022-10-05T01:28:55.538Z,8.94
2022-10-05T01:34:19.415Z,8.96
2022-10-05T01:39:37.089Z,8.96
2022-10-05T01:45:05.810Z,8.92
2022-10-05T01:50:13.992Z,8.88
2022-10-05T01:55:40.836Z,8.89
2022-10-05T02:01:14.781Z,8.84
2022-10-05T02:06:30.141Z,8.82
2022-10-05T02:11:34.232Z,8.84
2022-10-05T02:16:42.271Z,8.84
2022-10-05T02:21:49.061Z,8.86
2022-10-05T02:26:52.883Z,8.87
2022-10-05T02:32:00.555Z,8.92
2022-10-05T02:37:12.255Z,8.87
2022-10-05T02:42:22.466Z,8.81
2022-10-05T02:47:48.776Z,8.78
2022-10-05T02:54:51.168Z,8.76
2022-10-05T02:59:09.201Z,8.72
2022-10-05T03:04:26.873Z,8.68
2022-10-05T03:09:36.363Z,8.66
2022-10-05T03:14:48.037Z,8.61
2022-10-05T03:20:21.609Z,8.56
2022-10-05T03:25:48.326Z,8.53
2022-10-05T03:31:03.194Z,8.49
2022-10-05T03:36:29.154Z,8.45
2022-10-05T03:42:07.493Z,8.40
2022-10-05T03:47:27.795Z,8.36
2022-10-05T03:52:42.839Z,8.34
2022-10-05T03:57:47.448Z,8.34
2022-10-05T04:02:57.151Z,8.37
2022-10-05T04:08:31.450Z,8.42
2022-10-05T04:14:18.946Z,8.45
2022-10-05T04:19:44.250Z,8.48
2022-10-05T04:24:54.236Z,8.48
2022-10-05T04:30:09.097Z,8.48
2022-10-05T04:35:17.967Z,8.45
2022-10-05T04:40:35.946Z,8.39
2022-10-05T04:46:12.583Z,8.37
2022-10-05T04:51:28.550Z,8.34
2022-10-05T04:56:59.660Z,8.35
2022-10-05T05:02:13.797Z,8.40
2022-10-05T05:07:35.465Z,8.46
2022-10-05T05:12:57.832Z,8.54
2022-10-05T05:18:28.166Z,8.68
2022-10-05T05:23:50.511Z,8.77
2022-10-05T05:29:17.692Z,8.86
2022-10-05T05:34:38.074Z,8.95
2022-10-05T05:39:57.156Z,9.07
2022-10-05T05:45:15.960Z,9.19
2022-10-05T05:50:24.393Z,9.21
2022-10-05T05:55:33.074Z,9.29
2022-10-05T06:00:45.924Z,9.41
2022-10-05T06:05:52.452Z,9.49
2022-10-05T06:11:25.521Z,9.53
2022-10-05T06:16:39.426Z,9.63
2022-10-05T06:21:56.392Z,9.83
2022-10-05T06:27:13.855Z,10.16
2022-10-05T06:32:38.500Z,10.56
2022-10-05T06:38:05.988Z,11.01
2022-10-05T06:44:02.497Z,11.34
2022-10-05T06:49:31.607Z,11.70
2022-10-05T06:55:13.211Z,11.95
2022-10-05T07:00:24.861Z,12.30
2022-10-05T07:05:38.161Z,12.72
2022-10-05T07:11:04.004Z,13.25
2022-10-05T07:16:13.718Z,13.62
2022-10-05T07:22:00.658Z,13.74
2022-10-05T07:27:20.214Z,13.73
2022-10-05T07:32:38.915Z,13.69
2022-10-05T07:37:54.511Z,13.65
2022-10-05T07:43:40.296Z,13.71
2022-10-05T07:49:31.145Z,13.98
2022-10-05T07:54:51.965Z,14.26
2022-10-05T07:59:55.077Z,14.46
2022-10-05T08:05:27.589Z,14.72
2022-10-05T08:10:56.370Z,14.98
2022-10-05T08:16:03.213Z,15.22
2022-10-05T08:21:11.866Z,15.52
2022-10-05T08:26:41.066Z,15.81
2022-10-05T08:31:48.659Z,16.13
2022-10-05T08:36:57.186Z,16.28
2022-10-05T08:42:50.952Z,16.47
2022-10-05T08:48:07.582Z,16.85
2022-10-05T08:53:34.458Z,17.13
2022-10-05T08:58:45.213Z,17.34
2022-10-05T09:04:30.328Z,17.57
2022-10-05T09:09:56.262Z,17.66
2022-10-05T09:15:24.866Z,17.57
2022-10-05T09:20:34.474Z,17.45
2022-10-05T09:25:47.976Z,17.45
2022-10-05T09:31:12.669Z,17.52
2022-10-05T09:36:36.195Z,17.56
2022-10-05T09:42:02.197Z,17.55
2022-10-05T09:47:26.107Z,17.60
2022-10-05T09:52:53.972Z,17.67
2022-10-05T09:58:12.165Z,17.86
2022-10-05T10:03:43.222Z,18.13
2022-10-05T10:09:16.091Z,18.34
2022-10-05T10:15:24.048Z,18.38
2022-10-05T10:20:38.420Z,18.58
2022-10-05T10:26:08.036Z,18.92
2022-10-05T10:31:41.001Z,19.14
2022-10-05T10:37:19.181Z,19.07
2022-10-05T10:42:33.606Z,18.96
2022-10-05T10:47:53.142Z,18.90
2022-10-05T10:53:13.970Z,19.18
2022-10-05T10:58:53.328Z,19.61
2022-10-05T11:04:16.907Z,19.90
2022-10-05T11:10:01.343Z,19.98
2022-10-05T11:15:33.988Z,19.86
2022-10-05T11:20:58.999Z,19.75
2022-10-05T11:26:19.207Z,19.64
2022-10-05T11:31:46.032Z,19.51
2022-10-05T11:37:20.002Z,19.50
2022-10-05T11:42:50.694Z,19.51
2022-10-05T11:48:29.942Z,19.59
2022-10-05T11:54:03.076Z,19.66
2022-10-05T11:59:17.575Z,19.67
2022-10-05T12:04:53.592Z,19.68
2022-10-05T12:10:32.618Z,19.65
2022-10-05T12:15:48.478Z,19.63
2022-10-05T12:21:04.931Z,19.69
2022-10-05T12:26:12.421Z,19.63
2022-10-05T12:31:25.893Z,19.54
2022-10-05T12:37:03.545Z,19.45
2022-10-05T12:42:19.426Z,19.34
2022-10-05T12:47:36.960Z,19.29
2022-10-05T12:52:57.526Z,19.29
2022-10-05T12:58:33.090Z,19.24
2022-10-05T13:03:42.083Z,19.19
2022-10-05T13:08:50.794Z,19.22
2022-10-05T13:14:23.562Z,19.19
2022-10-05T13:19:35.768Z,19.09
2022-10-05T13:25:04.117Z,19.02
2022-10-05T13:30:16.662Z,18.94
2022-10-05T13:35:48.639Z,18.87
2022-10-05T13:41:15.265Z,18.76
2022-10-05T13:46:37.630Z,18.66
2022-10-05T13:52:10.791Z,18.69
2022-10-05T13:57:35.015Z,18.78
2022-10-05T14:02:40.332Z,18.81
2022-10-05T14:07:53.241Z,18.83
2022-10-05T14:12:55.873Z,18.87
2022-10-05T14:17:58.761Z,18.87
2022-10-05T14:23:17.374Z,18.78
2022-10-05T14:28:39.650Z,18.64
2022-10-05T14:33:41.997Z,18.50
2022-10-05T14:38:55.363Z,18.36
2022-10-05T14:44:09.651Z,18.29
2022-10-05T14:49:21.134Z,18.38
2022-10-05T14:54:43.840Z,18.39
2022-10-05T14:59:48.462Z,18.29
2022-10-05T15:05:16.657Z,18.16
2022-10-05T15:10:33.055Z,17.98
2022-10-05T15:16:03.986Z,17.80
2022-10-05T15:21:48.150Z,17.61
2022-10-05T15:26:59.656Z,17.42
2022-10-05T15:32:23.326Z,17.29
2022-10-05T15:37:33.129Z,17.16
2022-10-05T15:42:49.616Z,17.02
2022-10-05T15:48:29.486Z,16.88
2022-10-05T15:53:42.266Z,16.72
2022-10-05T15:58:50.408Z,16.54
2022-10-05T16:04:15.263Z,16.33
2022-10-05T16:09:34.731Z,16.16
2022-10-05T16:14:56.707Z,16.10
2022-10-05T16:20:25.589Z,16.02
2022-10-05T16:25:54.369Z,15.92
2022-10-05T16:31:08.311Z,15.84
2022-10-05T16:36:22.758Z,15.77
2022-10-05T16:41:42.796Z,15.68
2022-10-05T16:46:48.704Z,15.58
2022-10-05T16:51:59.308Z,15.51
2022-10-05T16:57:21.569Z,15.43
2022-10-05T17:02:36.485Z,15.37
2022-10-05T17:08:08.653Z,15.31
2022-10-05T17:13:48.356Z,15.22
2022-10-05T17:19:09.127Z,15.14
2022-10-05T17:24:21.935Z,15.08
2022-10-05T17:29:54.786Z,15.07
2022-10-05T17:35:00.635Z,15.09
2022-10-05T17:40:30.308Z,15.12
2022-10-05T17:45:32.020Z,15.15
2022-10-05T17:51:07.447Z,15.18
2022-10-05T17:56:15.804Z,15.17
2022-10-05T18:01:38.722Z,15.13
2022-10-05T18:06:52.961Z,15.08
2022-10-05T18:12:10.509Z,15.05
2022-10-05T18:17:13.819Z,15.02
2022-10-05T18:22:15.697Z,15.00
2022-10-05T18:27:34.301Z,14.97
2022-10-05T18:32:47.300Z,14.93
2022-10-05T18:38:27.766Z,14.89
2022-10-05T18:44:08.778Z,14.84
2022-10-05T18:49:36.257Z,14.79
2022-10-05T18:54:55.126Z,14.75
2022-10-05T19:00:18.297Z,14.72
2022-10-05T19:05:47.367Z,14.70
2022-10-05T19:10:55.753Z,14.66
2022-10-05T19:16:22.647Z,14.62
2022-10-05T19:21:46.296Z,14.58
2022-10-05T19:26:53.991Z,14.53
2022-10-05T19:32:36.408Z,14.51
2022-10-05T19:38:27.392Z,14.46
2022-10-05T19:44:02.574Z,14.40
2022-10-05T19:49:09.507Z,14.33
2022-10-05T19:54:25.254Z,14.28
2022-10-05T19:59:31.443Z,14.21
2022-10-05T20:04:40.678Z,14.09
2022-10-05T20:10:23.211Z,13.95
2022-10-05T20:15:47.149Z,13.78
2022-10-05T20:20:50.187Z,13.65
2022-10-05T20:26:11.829Z,13.54
2022-10-05T20:31:23.851Z,13.43
2022-10-05T20:36:26.075Z,13.34
2022-10-05T20:41:27.909Z,13.25
2022-10-05T20:46:31.110Z,13.15
2022-10-05T20:51:33.072Z,13.06
2022-10-05T20:56:35.425Z,13.00
2022-10-05T21:01:48.016Z,12.95
2022-10-05T21:06:50.326Z,12.91
2022-10-05T21:11:53.100Z,12.90
2022-10-05T21:16:54.952Z,12.91
2022-10-05T21:22:07.535Z,12.94
2022-10-05T21:27:10.360Z,12.96
2022-10-05T21:32:12.170Z,12.98
2022-10-05T21:37:15.594Z,13.02
2022-10-05T21:42:17.366Z,13.02
2022-10-05T21:47:19.103Z,12.98
2022-10-05T21:52:21.920Z,12.93
2022-10-05T21:57:23.766Z,12.88
2022-10-05T22:02:25.507Z,12.84
2022-10-05T22:07:29.141Z,12.83
2022-10-05T22:12:32.318Z,12.82
2022-10-05T22:17:34.292Z,12.80
2022-10-05T22:22:36.320Z,12.76
2022-10-05T22:27:38.535Z,12.74
2022-10-05T22:32:41.222Z,12.72
2022-10-05T22:37:42.941Z,12.69
2022-10-05T22:42:44.767Z,12.64
2022-10-05T22:47:46.536Z,12.60
2022-10-05T22:52:52.606Z,12.58
2022-10-05T22:57:54.456Z,12.59
2022-10-05T23:02:56.632Z,12.60
2022-10-05T23:07:59.132Z,12.65
2022-10-05T23:13:01.911Z,12.75
2022-10-05T23:18:03.792Z,12.85
2022-10-05T23:23:06.059Z,12.90
2022-10-05T23:28:08.164Z,12.95
2022-10-05T23:33:14.096Z,12.98
2022-10-05T23:38:15.863Z,13.02
2022-10-05T23:43:18.094Z,13.08
2022-10-05T23:48:20.278Z,13.19
2022-10-05T23:53:23.096Z,13.30
2022-10-05T23:58:25.418Z,13.35
